createdAt,value
2022-11-02T00:00:26.709Z,10.50
2022-11-02T00:03:35.267Z,10.45
2022-11-02T00:06:43.700Z,10.39
2022-11-02T00:10:05.726Z,10.37
2022-11-02T00:13:13.707Z,10.32
2022-11-02T00:16:22.885Z,10.27
2022-11-02T00:19:37.694Z,10.23
2022-11-02T00:22:41.324Z,10.14
2022-11-02T00:26:02.062Z,10.08
2022-11-02T00:29:11.319Z,10.05
2022-11-02T00:32:19.700Z,10.00
2022-11-02T00:35:28.372Z,9.97
2022-11-02T00:38:42.699Z,9.98
2022-11-02T00:41:50.725Z,9.98
2022-11-02T00:44:59.347Z,9.98
2022-11-02T00:48:07.838Z,9.97
2022-11-02T00:51:22.720Z,9.95
2022-11-02T00:54:31.216Z,9.96
2022-11-02T00:57:39.717Z,9.86
2022-11-02T01:00:48.200Z,9.89
2022-11-02T01:04:03.705Z,9.87
2022-11-02T01:07:11.950Z,9.82
2022-11-02T01:10:28.712Z,9.81
2022-11-02T01:13:36.721Z,9.77
2022-11-02T01:16:51.714Z,9.74
2022-11-02T01:19:53.477Z,9.71
2022-11-02T01:23:08.721Z,9.67
2022-11-02T01:26:17.710Z,9.63
2022-11-02T01:29:26.717Z,9.63
2022-11-02T01:32:35.338Z,9.65
2022-11-02T01:35:49.700Z,9.61
2022-11-02T01:38:58.733Z,9.58
2022-11-02T01:42:22.274Z,9.59
2022-11-02T01:45:36.716Z,9.57
2022-11-02T01:48:56.399Z,9.56
2022-11-02T01:52:32.720Z,9.54
2022-11-02T01:55:41.533Z,9.57
2022-11-02T01:59:03.717Z,9.62
2022-11-02T02:02:20.838Z,9.68
2022-11-02T02:05:47.721Z,9.71
2022-11-02T02:09:06.717Z,9.75
2022-11-02T02:12:15.248Z,9.75
2022-11-02T02:15:38.727Z,9.77
2022-11-02T02:18:58.742Z,9.76
2022-11-02T02:22:31.867Z,9.77
2022-11-02T02:25:48.716Z,9.77
2022-11-02T02:29:09.704Z,9.76
2022-11-02T02:32:46.729Z,9.76
2022-11-02T02:36:00.011Z,9.77
2022-11-02T02:39:44.711Z,9.78
2022-11-02T02:43:05.695Z,9.82
2022-11-02T02:46:20.088Z,9.87
2022-11-02T02:49:56.719Z,9.89
2022-11-02T02:53:07.735Z,9.89
2022-11-02T02:56:21.173Z,9.94
2022-11-02T02:59:42.695Z,9.98
2022-11-02T03:02:53.709Z,10.02
2022-11-02T03:06:20.717Z,10.00
2022-11-02T03:09:39.866Z,9.99
2022-11-02T03:13:06.693Z,9.96
2022-11-02T03:16:29.720Z,9.99
2022-11-02T03:19:53.050Z,10.02
2022-11-02T03:23:20.764Z,10.06
2022-11-02T03:26:32.135Z,10.06
2022-11-02T03:29:51.733Z,10.05
2022-11-02T03:32:56.628Z,10.10
2022-11-02T03:36:38.717Z,10.12
2022-11-02T03:39:58.699Z,10.11
2022-11-02T03:43:13.717Z,10.14
2022-11-02T03:46:29.756Z,10.18
2022-11-02T03:49:33.186Z,10.19
2022-11-02T03:52:50.726Z,10.21
2022-11-02T03:56:12.731Z,10.20
2022-11-02T03:59:27.715Z,10.24
2022-11-02T04:02:36.765Z,10.25
2022-11-02T04:05:58.682Z,10.26
2022-11-02T04:09:13.717Z,10.28
2022-11-02T04:12:22.299Z,10.23
2022-11-02T04:15:36.738Z,10.23
2022-11-02T04:18:44.703Z,10.23
2022-11-02T04:22:00.727Z,10.21
2022-11-02T04:25:02.608Z,10.18
2022-11-02T04:28:17.734Z,10.18
2022-11-02T04:31:25.721Z,10.21
2022-11-02T04:34:34.258Z,10.25
2022-11-02T04:37:49.739Z,10.25
2022-11-02T04:40:51.657Z,10.27
2022-11-02T04:44:14.720Z,10.30
2022-11-02T04:47:23.302Z,10.26
2022-11-02T04:50:37.736Z,10.29
2022-11-02T04:53:45.733Z,10.30
2022-11-02T04:56:54.529Z,10.28
2022-11-02T05:00:03.722Z,10.27
2022-11-02T05:03:12.713Z,10.26
2022-11-02T05:06:29.709Z,10.29
2022-11-02T05:09:44.722Z,10.31
2022-11-02T05:13:00.278Z,10.37
2022-11-02T05:16:22.726Z,10.36
2022-11-02T05:19:31.293Z,10.38
2022-11-02T05:22:48.714Z,10.35
2022-11-02T05:26:08.693Z,10.36
2022-11-02T05:29:17.214Z,10.32
2022-11-02T05:32:25.697Z,10.31
2022-11-02T05:35:34.230Z,10.34
2022-11-02T05:38:48.705Z,10.35
2022-11-02T05:41:57.328Z,10.36
2022-11-02T05:45:12.714Z,10.40
2022-11-02T05:48:28.740Z,10.42
2022-11-02T05:51:37.188Z,10.42
2022-11-02T05:54:45.715Z,10.40
2022-11-02T05:58:01.727Z,10.40
2022-11-02T06:01:05.597Z,10.39
2022-11-02T06:04:20.749Z,10.36
2022-11-02T06:07:35.730Z,10.41
2022-11-02T06:10:50.943Z,10.42
2022-11-02T06:13:59.741Z,10.41
2022-11-02T06:17:14.718Z,10.45
2022-11-02T06:20:26.718Z,10.49
2022-11-02T06:23:42.709Z,10.55
2022-11-02T06:26:57.716Z,10.59
2022-11-02T06:30:05.728Z,10.63
2022-11-02T06:33:20.740Z,10.66
2022-11-02T06:36:22.584Z,10.72
2022-11-02T06:43:15.357Z,10.83
2022-11-02T06:46:30.731Z,10.90
2022-11-02T06:49:38.727Z,10.95
2022-11-02T06:52:54.717Z,10.97
2022-11-02T06:55:58.003Z,11.01
2022-11-02T06:59:12.736Z,11.08
2022-11-02T07:02:30.172Z,11.11
2022-11-02T07:05:38.230Z,11.14
2022-11-02T07:09:01.860Z,11.19
2022-11-02T07:12:04.124Z,11.19
2022-11-02T07:15:20.913Z,11.24
2022-11-02T07:18:29.732Z,11.31
2022-11-02T07:21:40.477Z,11.30
2022-11-02T07:24:57.743Z,11.29
2022-11-02T07:28:06.294Z,11.28
2022-11-02T07:31:20.774Z,11.33
2022-11-02T07:34:22.560Z,11.35
2022-11-02T07:37:37.981Z,11.38
2022-11-02T07:40:49.420Z,11.42
2022-11-02T07:43:58.757Z,11.43
2022-11-02T07:47:07.314Z,11.52
2022-11-02T07:50:24.732Z,11.66
2022-11-02T07:53:33.968Z,11.75
2022-11-02T07:56:42.782Z,11.85
2022-11-02T07:59:51.515Z,11.97
2022-11-02T08:03:10.153Z,12.01
2022-11-02T08:06:19.320Z,12.06
2022-11-02T08:09:40.729Z,12.33
2022-11-02T08:12:55.722Z,12.35
2022-11-02T08:16:04.694Z,12.38
2022-11-02T08:19:14.348Z,12.53
2022-11-02T08:22:22.654Z,12.62
2022-11-02T08:25:40.289Z,12.86
2022-11-02T08:28:48.420Z,12.88
2022-11-02T08:32:04.745Z,12.93
2022-11-02T08:35:14.739Z,12.97
2022-11-02T08:38:29.740Z,12.97
2022-11-02T08:41:31.576Z,12.95
2022-11-02T08:44:46.732Z,12.99
2022-11-02T08:47:55.491Z,13.01
2022-11-02T08:51:10.730Z,13.13
2022-11-02T08:54:19.360Z,13.29
2022-11-02T08:57:27.746Z,13.39
2022-11-02T09:00:36.927Z,13.53
2022-11-02T09:03:45.733Z,13.58
2022-11-02T09:07:00.713Z,13.57
2022-11-02T09:10:09.492Z,13.50
2022-11-02T09:13:26.776Z,13.42
2022-11-02T09:16:40.188Z,13.37
2022-11-02T09:19:55.720Z,13.52
2022-11-02T09:23:04.720Z,13.60
2022-11-02T09:26:13.316Z,13.65
2022-11-02T09:29:27.735Z,13.73
2022-11-02T09:32:35.722Z,13.65
2022-11-02T09:35:53.744Z,13.72
2022-11-02T09:39:02.259Z,13.86
2022-11-02T09:42:13.752Z,14.01
2022-11-02T09:45:23.032Z,14.03
2022-11-02T09:48:55.754Z,13.92
2022-11-02T09:52:11.733Z,13.88
2022-11-02T09:55:20.221Z,13.94
2022-11-02T09:58:42.726Z,14.00
2022-11-02T10:01:53.612Z,14.11
2022-11-02T10:05:25.714Z,14.33
2022-11-02T10:08:40.915Z,14.54
2022-11-02T10:12:24.712Z,14.66
2022-11-02T10:15:51.025Z,14.73
2022-11-02T10:19:05.739Z,14.86
2022-11-02T10:22:18.622Z,15.02
2022-11-02T10:25:28.733Z,15.17
2022-11-02T10:28:47.725Z,15.15
2022-11-02T10:32:03.721Z,15.13
2022-11-02T10:35:57.674Z,15.13
2022-11-02T10:39:20.054Z,15.29
2022-11-02T10:42:46.738Z,15.69
2022-11-02T10:46:04.756Z,15.79
2022-11-02T10:49:37.760Z,15.85
2022-11-02T10:52:47.339Z,15.92
2022-11-02T10:56:09.727Z,15.88
2022-11-02T10:59:20.739Z,15.94
2022-11-02T11:02:35.731Z,15.99
2022-11-02T11:06:05.752Z,15.92
2022-11-02T11:09:24.986Z,16.03
2022-11-02T11:12:44.741Z,16.04
2022-11-02T11:15:57.886Z,15.95
2022-11-02T11:22:52.729Z,15.74
2022-11-02T11:26:13.751Z,15.75
2022-11-02T11:29:23.475Z,15.79
2022-11-02T11:32:35.737Z,15.84
2022-11-02T11:35:55.734Z,15.89
2022-11-02T11:39:29.739Z,15.97
2022-11-02T11:42:42.134Z,16.07
2022-11-02T11:46:08.107Z,16.14
2022-11-02T11:49:55.148Z,16.19
2022-11-02T11:53:21.756Z,16.26
2022-11-02T11:56:30.312Z,16.32
2022-11-02T11:59:50.745Z,16.42
2022-11-02T12:03:06.379Z,16.49
2022-11-02T12:06:30.751Z,16.50
2022-11-02T12:09:44.278Z,16.51
2022-11-02T12:13:01.887Z,16.48
2022-11-02T12:16:28.713Z,16.46
2022-11-02T12:20:03.745Z,16.52
2022-11-02T12:23:24.760Z,16.55
2022-11-02T12:26:54.723Z,16.53
2022-11-02T12:30:18.854Z,16.57
2022-11-02T12:33:32.491Z,16.62
2022-11-02T12:37:35.376Z,16.67
2022-11-02T12:40:51.278Z,16.72
2022-11-02T12:44:20.285Z,16.76
2022-11-02T12:48:04.260Z,16.81
2022-11-02T12:51:28.778Z,16.91
2022-11-02T12:54:47.334Z,17.08
2022-11-02T12:57:55.775Z,17.27
2022-11-02T13:01:14.138Z,17.41
2022-11-02T13:04:43.965Z,17.50
2022-11-02T13:08:08.839Z,17.45
2022-11-02T13:11:37.979Z,17.32
2022-11-02T13:14:49.444Z,17.26
2022-11-02T13:18:03.103Z,17.17
2022-11-02T13:21:14.187Z,17.10
2022-11-02T13:24:44.765Z,17.03
2022-11-02T13:28:46.905Z,16.93
2022-11-02T13:32:06.750Z,16.83
2022-11-02T13:35:20.593Z,16.74
2022-11-02T13:38:44.748Z,16.70
2022-11-02T13:42:11.781Z,16.69
2022-11-02T13:46:07.768Z,16.70
2022-11-02T13:49:28.760Z,16.76
2022-11-02T13:52:48.746Z,16.83
2022-11-02T13:56:05.061Z,16.88
2022-11-02T13:59:16.779Z,16.87
2022-11-02T14:02:29.054Z,16.86
2022-11-02T14:05:42.775Z,16.83
2022-11-02T14:09:13.766Z,16.71
2022-11-02T14:12:28.754Z,16.57
2022-11-02T14:15:36.757Z,16.56
2022-11-02T14:18:45.383Z,16.58
2022-11-02T14:22:05.785Z,16.50
2022-11-02T14:25:16.501Z,16.40
2022-11-02T14:28:27.782Z,16.29
2022-11-02T14:31:51.740Z,16.19
2022-11-02T14:35:34.761Z,16.05
2022-11-02T14:38:59.057Z,15.89
2022-11-02T14:42:26.755Z,15.78
2022-11-02T14:45:56.753Z,15.90
2022-11-02T14:49:01.715Z,16.07
2022-11-02T14:52:19.763Z,16.10
2022-11-02T14:55:37.773Z,16.10
2022-11-02T14:58:48.904Z,16.14
2022-11-02T15:02:10.781Z,16.23
2022-11-02T15:05:41.781Z,16.29
2022-11-02T15:08:59.142Z,16.28
2022-11-02T15:12:35.798Z,16.24
2022-11-02T15:15:45.596Z,16.18
2022-11-02T15:18:53.820Z,16.16
2022-11-02T15:22:42.925Z,16.10
2022-11-02T15:25:59.767Z,16.02
2022-11-02T15:29:41.747Z,15.95
2022-11-02T15:33:01.928Z,15.95
2022-11-02T15:36:34.759Z,15.92
2022-11-02T15:39:56.770Z,15.84
2022-11-02T15:43:25.758Z,15.70
2022-11-02T15:46:52.773Z,15.56
2022-11-02T15:50:08.743Z,15.40
2022-11-02T15:53:26.763Z,15.24
2022-11-02T15:56:41.752Z,15.16
2022-11-02T16:00:01.777Z,15.04
2022-11-02T16:03:16.794Z,14.92
2022-11-02T16:06:45.760Z,14.78
2022-11-02T16:10:28.753Z,14.68
2022-11-02T16:14:03.509Z,14.54
2022-11-02T16:17:11.792Z,14.44
2022-11-02T16:20:39.745Z,14.29
2022-11-02T16:24:01.770Z,14.21
2022-11-02T16:27:04.039Z,14.04
2022-11-02T16:30:29.067Z,13.98
2022-11-02T16:33:40.036Z,13.86
2022-11-02T16:36:48.783Z,13.73
2022-11-02T16:40:05.749Z,13.62
2022-11-02T16:43:21.059Z,13.54
2022-11-02T16:46:39.687Z,13.43
2022-11-02T16:49:54.840Z,13.30
2022-11-02T16:53:05.486Z,13.28
2022-11-02T16:56:34.766Z,13.24
2022-11-02T16:59:45.696Z,13.21
2022-11-02T17:03:01.811Z,13.19
2022-11-02T17:06:07.537Z,13.14
2022-11-02T17:09:32.793Z,13.11
2022-11-02T17:12:44.798Z,13.08
2022-11-02T17:15:57.069Z,13.06
2022-11-02T17:19:45.768Z,12.99
2022-11-02T17:23:07.783Z,12.91
2022-11-02T17:26:29.829Z,12.87
2022-11-02T17:29:46.807Z,12.85
2022-11-02T17:33:13.762Z,12.82
2022-11-02T17:36:30.285Z,12.78
2022-11-02T17:39:49.773Z,12.73
2022-11-02T17:43:08.151Z,12.72
2022-11-02T17:46:18.162Z,12.70
2022-11-02T17:49:33.787Z,12.68
2022-11-02T17:52:52.165Z,12.65
2022-11-02T17:55:55.753Z,12.57
2022-11-02T17:59:15.504Z,12.56
2022-11-02T18:02:25.418Z,12.55
2022-11-02T18:05:46.760Z,12.52
2022-11-02T18:09:11.788Z,12.48
2022-11-02T18:12:15.979Z,12.41
2022-11-02T18:15:35.175Z,12.37
2022-11-02T18:18:47.289Z,12.33
2022-11-02T18:21:55.995Z,12.28
2022-11-02T18:25:15.141Z,12.23
2022-11-02T18:28:25.371Z,12.16
2022-11-02T18:31:35.312Z,12.10
2022-11-02T18:34:53.186Z,12.02
2022-11-02T18:37:57.295Z,11.93
2022-11-02T18:41:17.204Z,11.89
2022-11-02T18:44:32.751Z,11.83
2022-11-02T18:47:42.336Z,11.83
2022-11-02T18:50:53.316Z,11.75
2022-11-02T18:54:04.795Z,11.69
2022-11-02T18:57:14.313Z,11.62
2022-11-02T19:00:25.046Z,11.56
2022-11-02T19:03:42.038Z,11.51
2022-11-02T19:06:48.397Z,11.50
2022-11-02T19:10:10.162Z,11.46
2022-11-02T19:13:26.186Z,11.48
2022-11-02T19:16:36.181Z,11.45
2022-11-02T19:19:53.197Z,11.43
2022-11-02T19:23:02.176Z,11.43
2022-11-02T19:26:18.237Z,11.43
2022-11-02T19:29:27.615Z,11.37
2022-11-02T19:32:39.219Z,11.38
2022-11-02T19:36:05.005Z,11.32
2022-11-02T19:39:09.679Z,11.35
2022-11-02T19:42:26.143Z,11.35
2022-11-02T19:45:31.147Z,11.32
2022-11-02T19:48:48.106Z,11.32
2022-11-02T19:51:57.184Z,11.28
2022-11-02T19:55:08.603Z,11.25
2022-11-02T19:58:18.183Z,11.21
2022-11-02T20:01:35.833Z,11.17
2022-11-02T20:04:52.097Z,11.15
2022-11-02T20:08:01.206Z,11.07
2022-11-02T20:11:23.339Z,11.07
2022-11-02T20:14:39.024Z,11.01
2022-11-02T20:18:17.787Z,10.97
2022-11-02T20:21:36.899Z,10.90
2022-11-02T20:24:58.046Z,10.87
2022-11-02T20:28:07.663Z,10.86
2022-11-02T20:31:27.114Z,10.82
2022-11-02T20:34:37.072Z,10.85
2022-11-02T20:37:48.847Z,10.80
2022-11-02T20:40:57.786Z,10.82
2022-11-02T20:44:14.216Z,10.89
2022-11-02T20:47:23.962Z,11.00
2022-11-02T20:50:39.826Z,11.17
2022-11-02T20:53:55.842Z,11.43
2022-11-02T20:56:59.300Z,11.69
2022-11-02T21:00:16.183Z,11.95
2022-11-02T21:03:25.755Z,12.08
2022-11-02T21:06:34.812Z,12.22
2022-11-02T21:09:51.319Z,12.30
2022-11-02T21:13:07.585Z,12.39
2022-11-02T21:16:17.038Z,12.47
2022-11-02T21:19:31.794Z,12.53
2022-11-02T21:22:46.774Z,12.54
2022-11-02T21:25:54.795Z,12.62
2022-11-02T21:29:03.600Z,12.64
2022-11-02T21:32:11.786Z,12.69
2022-11-02T21:35:21.462Z,12.79
2022-11-02T21:38:36.787Z,12.82
2022-11-02T21:41:45.780Z,12.86
2022-11-02T21:44:54.318Z,12.91
2022-11-02T21:48:08.783Z,12.92
2022-11-02T21:51:24.784Z,12.93
2022-11-02T21:54:33.285Z,12.95
2022-11-02T21:57:41.783Z,12.99
2022-11-02T22:00:56.812Z,12.99
2022-11-02T22:04:12.772Z,13.00
2022-11-02T22:07:28.823Z,13.02
2022-11-02T22:10:43.997Z,13.03
2022-11-02T22:13:51.777Z,13.04
2022-11-02T22:17:22.195Z,13.09
2022-11-02T22:20:35.763Z,13.10
2022-11-02T22:23:46.207Z,13.09
2022-11-02T22:27:00.766Z,13.10
2022-11-02T22:30:15.798Z,13.06
2022-11-02T22:33:27.741Z,13.04
2022-11-02T22:36:37.772Z,13.01
2022-11-02T22:39:52.795Z,12.95
2022-11-02T22:42:54.648Z,12.91
2022-11-02T22:46:11.760Z,12.86
2022-11-02T22:49:21.790Z,12.84
2022-11-02T22:52:36.787Z,12.84
2022-11-02T22:55:45.247Z,12.80
2022-11-02T22:58:54.778Z,12.76
2022-11-02T23:02:09.825Z,12.78
2022-11-02T23:05:11.632Z,12.77
2022-11-02T23:11:53.765Z,12.77
2022-11-02T23:15:08.790Z,12.76
2022-11-02T23:18:17.971Z,12.74
2022-11-02T23:21:26.797Z,12.82
2022-11-02T23:24:35.294Z,12.82
2022-11-02T23:28:03.868Z,12.79
2022-11-02T23:31:12.344Z,12.79
2022-11-02T23:34:20.787Z,12.72
2022-11-02T23:37:29.863Z,12.67
2022-11-02T23:40:38.789Z,12.42
2022-11-02T23:43:47.775Z,12.22
2022-11-02T23:47:02.802Z,11.96
2022-11-02T23:50:04.828Z,11.83
2022-11-02T23:53:22.784Z,11.71
2022-11-02T23:56:33.261Z,11.59
2022-11-02T23:59:41.775Z,11.47
